Аэропорт: Хабаровск-Новый. Хабаровск

ICAO: UHHH

METAR:
2019-12-12 11:30:00
UHHH 121130Z 26008MPS CAVOK M15/M21 Q1014 R23L/090060 NOSIG RMK QFE754/1005
METAR:
2019-12-12 07:46:00
TAF UHHH 120746Z 1209/1315 25003MPS CAVOK TEMPO 1209/1218 27008MPS FM130300 18003MPS 9999 SCT020 TEMPO 1312/1315 26005MPS 3100 -SN